sensor_id;sensor_type;location;lat;lon;timestamp;temperature;humidity
26107;DHT22;13866;50.748;12.630;2023-06-10T00:01:26;14.60;99.90
26107;DHT22;13866;50.748;12.630;2023-06-10T00:03:53;14.60;99.90
26107;DHT22;13866;50.748;12.630;2023-06-10T00:06:19;14.70;99.90
26107;DHT22;13866;50.748;12.630;2023-06-10T00:08:47;14.70;99.90
26107;DHT22;13866;50.748;12.630;2023-06-10T00:11:12;14.50;99.90
26107;DHT22;13866;50.748;12.630;2023-06-10T00:13:38;14.60;99.90
26107;DHT22;13866;50.748;12.630;2023-06-10T00:16:03;14.50;99.90
26107;DHT22;13866;50.748;12.630;2023-06-10T00:18:29;14.50;99.90
26107;DHT22;13866;50.748;12.630;2023-06-10T00:20:56;14.50;99.90
26107;DHT22;13866;50.748;12.630;2023-06-10T00:23:22;14.50;99.90
26107;DHT22;13866;50.748;12.630;2023-06-10T00:25:50;14.30;99.90
26107;DHT22;13866;50.748;12.630;2023-06-10T00:28:15;14.40;99.90
26107;DHT22;13866;50.748;12.630;2023-06-10T00:30:41;14.40;99.90
26107;DHT22;13866;50.748;12.630;2023-06-10T00:33:06;14.40;99.90
26107;DHT22;13866;50.748;12.630;2023-06-10T00:35:32;14.40;99.90
26107;DHT22;13866;50.748;12.630;2023-06-10T00:37:57;14.50;99.90
26107;DHT22;13866;50.748;12.630;2023-06-10T00:40:23;14.50;99.90
26107;DHT22;13866;50.748;12.630;2023-06-10T00:42:48;14.30;99.90
26107;DHT22;13866;50.748;12.630;2023-06-10T00:45:13;14.30;99.90
26107;DHT22;13866;50.748;12.630;2023-06-10T00:47:39;14.10;99.90
26107;DHT22;13866;50.748;12.630;2023-06-10T00:50:05;14.10;99.90
26107;DHT22;13866;50.748;12.630;2023-06-10T00:52:31;14.00;99.90
26107;DHT22;13866;50.748;12.630;2023-06-10T00:54:58;13.90;99.90
26107;DHT22;13866;50.748;12.630;2023-06-10T00:57:25;13.90;99.90
26107;DHT22;13866;50.748;12.630;2023-06-10T00:59:51;14.10;99.90
26107;DHT22;13866;50.748;12.630;2023-06-10T01:02:16;14.10;99.90
26107;DHT22;13866;50.748;12.630;2023-06-10T01:04:42;14.00;99.90
26107;DHT22;13866;50.748;12.630;2023-06-10T01:07:30;13.80;99.90
26107;DHT22;13866;50.748;12.630;2023-06-10T01:10:22;13.70;99.90
26107;DHT22;13866;50.748;12.630;2023-06-10T01:12:58;13.70;99.90
26107;DHT22;13866;50.748;12.630;2023-06-10T01:15:24;13.70;99.90
26107;DHT22;13866;50.748;12.630;2023-06-10T01:17:59;13.70;99.90
26107;DHT22;13866;50.748;12.630;2023-06-10T01:20:26;13.80;99.90
26107;DHT22;13866;50.748;12.630;2023-06-10T01:22:54;13.70;99.90
26107;DHT22;13866;50.748;12.630;2023-06-10T01:25:20;13.60;99.90
26107;DHT22;13866;50.748;12.630;2023-06-10T01:30:27;13.60;99.90
26107;DHT22;13866;50.748;12.630;2023-06-10T01:32:56;13.60;99.90
26107;DHT22;13866;50.748;12.630;2023-06-10T01:35:25;13.60;99.90
26107;DHT22;13866;50.748;12.630;2023-06-10T01:37:53;13.50;99.90
26107;DHT22;13866;50.748;12.630;2023-06-10T01:40:19;13.40;99.90
26107;DHT22;13866;50.748;12.630;2023-06-10T01:42:45;13.40;99.90
26107;DHT22;13866;50.748;12.630;2023-06-10T01:45:11;13.30;99.90
26107;DHT22;13866;50.748;12.630;2023-06-10T01:47:36;13.30;99.90
26107;DHT22;13866;50.748;12.630;2023-06-10T01:50:02;13.30;99.90
26107;DHT22;13866;50.748;12.630;2023-06-10T01:52:28;13.30;99.90
26107;DHT22;13866;50.748;12.630;2023-06-10T01:54:53;13.20;99.90
26107;DHT22;13866;50.748;12.630;2023-06-10T01:57:19;13.20;99.90
26107;DHT22;13866;50.748;12.630;2023-06-10T01:59:44;13.00;99.90
26107;DHT22;13866;50.748;12.630;2023-06-10T02:02:11;12.90;99.90
26107;DHT22;13866;50.748;12.630;2023-06-10T02:04:37;13.00;99.90
26107;DHT22;13866;50.748;12.630;2023-06-10T02:07:02;13.10;99.90
26107;DHT22;13866;50.748;12.630;2023-06-10T02:09:30;13.00;99.90
26107;DHT22;13866;50.748;12.630;2023-06-10T02:11:55;13.00;99.90
26107;DHT22;13866;50.748;12.630;2023-06-10T02:14:21;12.90;99.90
26107;DHT22;13866;50.748;12.630;2023-06-10T02:16:46;12.90;99.90
26107;DHT22;13866;50.748;12.630;2023-06-10T02:19:12;12.90;99.90
26107;DHT22;13866;50.748;12.630;2023-06-10T02:21:38;12.90;99.90
26107;DHT22;13866;50.748;12.630;2023-06-10T02:24:04;13.00;99.90
26107;DHT22;13866;50.748;12.630;2023-06-10T02:26:30;12.90;99.90
26107;DHT22;13866;50.748;12.630;2023-06-10T02:28:55;12.80;99.90
26107;DHT22;13866;50.748;12.630;2023-06-10T02:31:20;12.70;99.90
26107;DHT22;13866;50.748;12.630;2023-06-10T02:33:46;12.60;99.90
26107;DHT22;13866;50.748;12.630;2023-06-10T02:36:12;12.70;99.90
26107;DHT22;13866;50.748;12.630;2023-06-10T02:38:40;12.70;99.90
26107;DHT22;13866;50.748;12.630;2023-06-10T02:41:06;12.70;99.90
26107;DHT22;13866;50.748;12.630;2023-06-10T02:43:31;12.80;99.90
26107;DHT22;13866;50.748;12.630;2023-06-10T02:45:57;12.80;99.90
26107;DHT22;13866;50.748;12.630;2023-06-10T02:48:26;12.70;99.90
26107;DHT22;13866;50.748;12.630;2023-06-10T02:50:52;12.70;99.90
26107;DHT22;13866;50.748;12.630;2023-06-10T02:53:18;12.70;99.90
26107;DHT22;13866;50.748;12.630;2023-06-10T02:55:44;12.80;99.90
26107;DHT22;13866;50.748;12.630;2023-06-10T02:58:09;12.70;99.90
26107;DHT22;13866;50.748;12.630;2023-06-10T03:00:35;12.70;99.90
26107;DHT22;13866;50.748;12.630;2023-06-10T03:03:03;12.60;99.90
26107;DHT22;13866;50.748;12.630;2023-06-10T03:05:30;12.60;99.90
26107;DHT22;13866;50.748;12.630;2023-06-10T03:07:55;12.70;99.90
26107;DHT22;13866;50.748;12.630;2023-06-10T03:10:21;12.70;99.90
26107;DHT22;13866;50.748;12.630;2023-06-10T03:12:46;12.70;99.90
26107;DHT22;13866;50.748;12.630;2023-06-10T03:15:12;12.70;99.90
26107;DHT22;13866;50.748;12.630;2023-06-10T03:17:37;12.60;99.90
26107;DHT22;13866;50.748;12.630;2023-06-10T03:20:03;12.70;99.90
26107;DHT22;13866;50.748;12.630;2023-06-10T03:22:33;12.80;99.90
26107;DHT22;13866;50.748;12.630;2023-06-10T03:24:58;12.80;99.90
26107;DHT22;13866;50.748;12.630;2023-06-10T03:27:25;12.80;99.90
26107;DHT22;13866;50.748;12.630;2023-06-10T03:29:50;12.70;99.90
26107;DHT22;13866;50.748;12.630;2023-06-10T03:32:15;12.70;99.90
26107;DHT22;13866;50.748;12.630;2023-06-10T03:34:41;12.70;99.90
26107;DHT22;13866;50.748;12.630;2023-06-10T03:37:06;12.80;99.90
26107;DHT22;13866;50.748;12.630;2023-06-10T03:39:32;13.00;99.90
26107;DHT22;13866;50.748;12.630;2023-06-10T03:41:58;13.20;99.90
26107;DHT22;13866;50.748;12.630;2023-06-10T03:44:24;13.40;99.90
26107;DHT22;13866;50.748;12.630;2023-06-10T03:46:51;13.60;99.90
26107;DHT22;13866;50.748;12.630;2023-06-10T03:49:17;13.80;99.90
26107;DHT22;13866;50.748;12.630;2023-06-10T03:51:42;14.10;99.90
26107;DHT22;13866;50.748;12.630;2023-06-10T03:54:08;14.30;99.90
26107;DHT22;13866;50.748;12.630;2023-06-10T03:56:33;14.50;99.90
26107;DHT22;13866;50.748;12.630;2023-06-10T03:58:59;14.70;99.90
26107;DHT22;13866;50.748;12.630;2023-06-10T04:01:25;15.00;99.90
26107;DHT22;13866;50.748;12.630;2023-06-10T04:03:50;15.30;99.90
26107;DHT22;13866;50.748;12.630;2023-06-10T04:06:19;15.70;99.90
26107;DHT22;13866;50.748;12.630;2023-06-10T04:08:44;16.00;99.90
26107;DHT22;13866;50.748;12.630;2023-06-10T04:11:10;16.20;99.90
26107;DHT22;13866;50.748;12.630;2023-06-10T04:13:35;16.40;99.90
26107;DHT22;13866;50.748;12.630;2023-06-10T04:16:02;16.50;99.90
26107;DHT22;13866;50.748;12.630;2023-06-10T04:18:28;16.70;99.90
26107;DHT22;13866;50.748;12.630;2023-06-10T04:20:53;16.90;99.90
26107;DHT22;13866;50.748;12.630;2023-06-10T04:23:19;17.00;99.90
26107;DHT22;13866;50.748;12.630;2023-06-10T04:25:44;17.20;99.90
26107;DHT22;13866;50.748;12.630;2023-06-10T04:28:10;17.30;99.90
26107;DHT22;13866;50.748;12.630;2023-06-10T04:30:35;17.40;99.90
26107;DHT22;13866;50.748;12.630;2023-06-10T04:33:01;17.40;99.90
26107;DHT22;13866;50.748;12.630;2023-06-10T04:35:26;17.70;99.90
26107;DHT22;13866;50.748;12.630;2023-06-10T04:37:53;17.80;99.90
26107;DHT22;13866;50.748;12.630;2023-06-10T04:40:19;17.90;99.90
26107;DHT22;13866;50.748;12.630;2023-06-10T04:42:44;17.90;99.90
26107;DHT22;13866;50.748;12.630;2023-06-10T04:45:10;17.80;99.90
26107;DHT22;13866;50.748;12.630;2023-06-10T04:47:35;17.80;99.90
26107;DHT22;13866;50.748;12.630;2023-06-10T04:50:01;17.60;99.90
26107;DHT22;13866;50.748;12.630;2023-06-10T04:52:27;17.50;99.90
26107;DHT22;13866;50.748;12.630;2023-06-10T04:54:53;17.30;99.90
26107;DHT22;13866;50.748;12.630;2023-06-10T04:57:19;17.30;99.90
26107;DHT22;13866;50.748;12.630;2023-06-10T04:59:45;17.20;99.90
26107;DHT22;13866;50.748;12.630;2023-06-10T05:02:11;17.20;99.90
26107;DHT22;13866;50.748;12.630;2023-06-10T05:04:36;17.20;99.90
26107;DHT22;13866;50.748;12.630;2023-06-10T05:07:02;17.40;99.90
26107;DHT22;13866;50.748;12.630;2023-06-10T05:09:28;17.60;99.90
26107;DHT22;13866;50.748;12.630;2023-06-10T05:11:54;17.70;99.90
26107;DHT22;13866;50.748;12.630;2023-06-10T05:14:19;17.80;99.90
26107;DHT22;13866;50.748;12.630;2023-06-10T05:16:46;17.90;99.90
26107;DHT22;13866;50.748;12.630;2023-06-10T05:19:12;18.10;99.90
26107;DHT22;13866;50.748;12.630;2023-06-10T05:21:37;18.20;99.90
26107;DHT22;13866;50.748;12.630;2023-06-10T05:24:03;18.30;99.90
26107;DHT22;13866;50.748;12.630;2023-06-10T05:26:28;18.40;99.90
26107;DHT22;13866;50.748;12.630;2023-06-10T05:28:56;18.60;99.90
26107;DHT22;13866;50.748;12.630;2023-06-10T05:31:22;18.80;99.90
26107;DHT22;13866;50.748;12.630;2023-06-10T05:33:47;18.70;99.90
26107;DHT22;13866;50.748;12.630;2023-06-10T05:36:13;19.10;99.90
26107;DHT22;13866;50.748;12.630;2023-06-10T05:38:38;19.30;99.90
26107;DHT22;13866;50.748;12.630;2023-06-10T05:41:04;19.50;99.90
26107;DHT22;13866;50.748;12.630;2023-06-10T05:43:29;19.60;99.90
26107;DHT22;13866;50.748;12.630;2023-06-10T05:45:55;19.40;99.90
26107;DHT22;13866;50.748;12.630;2023-06-10T05:48:20;19.60;99.90
26107;DHT22;13866;50.748;12.630;2023-06-10T05:50:46;19.70;99.90
26107;DHT22;13866;50.748;12.630;2023-06-10T05:53:14;19.90;99.90
26107;DHT22;13866;50.748;12.630;2023-06-10T05:55:46;20.00;99.90
26107;DHT22;13866;50.748;12.630;2023-06-10T05:58:13;20.00;99.90
26107;DHT22;13866;50.748;12.630;2023-06-10T06:00:40;20.00;99.90
26107;DHT22;13866;50.748;12.630;2023-06-10T06:03:29;20.00;99.90
26107;DHT22;13866;50.748;12.630;2023-06-10T06:05:56;20.20;99.90
26107;DHT22;13866;50.748;12.630;2023-06-10T06:08:23;20.10;99.90
26107;DHT22;13866;50.748;12.630;2023-06-10T06:10:50;20.20;99.90
26107;DHT22;13866;50.748;12.630;2023-06-10T06:13:20;20.30;99.90
26107;DHT22;13866;50.748;12.630;2023-06-10T06:15:48;20.40;99.90
26107;DHT22;13866;50.748;12.630;2023-06-10T06:18:19;20.30;99.90
26107;DHT22;13866;50.748;12.630;2023-06-10T06:21:22;20.40;99.90
26107;DHT22;13866;50.748;12.630;2023-06-10T06:24:15;20.60;99.90
26107;DHT22;13866;50.748;12.630;2023-06-10T06:27:05;20.90;99.90
26107;DHT22;13866;50.748;12.630;2023-06-10T06:29:41;20.90;99.90
26107;DHT22;13866;50.748;12.630;2023-06-10T06:32:10;20.90;99.90
26107;DHT22;13866;50.748;12.630;2023-06-10T06:34:43;20.90;99.90
26107;DHT22;13866;50.748;12.630;2023-06-10T06:37:13;20.80;99.90
26107;DHT22;13866;50.748;12.630;2023-06-10T06:40:22;20.80;99.90
26107;DHT22;13866;50.748;12.630;2023-06-10T06:42:58;20.40;99.90
26107;DHT22;13866;50.748;12.630;2023-06-10T06:45:31;20.90;99.90
26107;DHT22;13866;50.748;12.630;2023-06-10T06:51:09;21.10;99.90
26107;DHT22;13866;50.748;12.630;2023-06-10T06:53:35;21.10;99.90
26107;DHT22;13866;50.748;12.630;2023-06-10T06:56:02;21.40;99.90
26107;DHT22;13866;50.748;12.630;2023-06-10T06:58:28;21.20;99.90
26107;DHT22;13866;50.748;12.630;2023-06-10T07:00:53;21.20;99.90
26107;DHT22;13866;50.748;12.630;2023-06-10T07:03:19;21.40;99.90
26107;DHT22;13866;50.748;12.630;2023-06-10T07:05:44;21.40;99.90
26107;DHT22;13866;50.748;12.630;2023-06-10T07:08:09;21.80;99.90
26107;DHT22;13866;50.748;12.630;2023-06-10T07:10:35;21.80;99.90
26107;DHT22;13866;50.748;12.630;2023-06-10T07:13:01;22.00;99.90
26107;DHT22;13866;50.748;12.630;2023-06-10T07:15:26;22.10;99.90
26107;DHT22;13866;50.748;12.630;2023-06-10T07:17:52;21.90;99.90
26107;DHT22;13866;50.748;12.630;2023-06-10T07:20:17;22.10;99.90
26107;DHT22;13866;50.748;12.630;2023-06-10T07:22:43;22.20;99.90
26107;DHT22;13866;50.748;12.630;2023-06-10T07:25:08;22.40;99.90
26107;DHT22;13866;50.748;12.630;2023-06-10T07:27:34;22.40;99.90
26107;DHT22;13866;50.748;12.630;2023-06-10T07:30:03;22.50;99.90
26107;DHT22;13866;50.748;12.630;2023-06-10T07:32:28;22.50;99.90
26107;DHT22;13866;50.748;12.630;2023-06-10T07:34:54;22.50;99.90
26107;DHT22;13866;50.748;12.630;2023-06-10T07:37:20;22.50;99.90
26107;DHT22;13866;50.748;12.630;2023-06-10T07:39:45;22.60;99.90
26107;DHT22;13866;50.748;12.630;2023-06-10T07:42:11;22.80;99.90
26107;DHT22;13866;50.748;12.630;2023-06-10T07:44:36;22.90;99.90
26107;DHT22;13866;50.748;12.630;2023-06-10T07:47:02;22.80;99.90
26107;DHT22;13866;50.748;12.630;2023-06-10T07:49:28;22.60;99.90
26107;DHT22;13866;50.748;12.630;2023-06-10T07:51:54;22.50;99.90
26107;DHT22;13866;50.748;12.630;2023-06-10T07:54:20;23.10;99.90
26107;DHT22;13866;50.748;12.630;2023-06-10T07:56:46;23.20;99.90
26107;DHT22;13866;50.748;12.630;2023-06-10T07:59:11;23.20;99.90
26107;DHT22;13866;50.748;12.630;2023-06-10T08:01:37;23.40;99.90
26107;DHT22;13866;50.748;12.630;2023-06-10T08:04:04;23.50;99.90
26107;DHT22;13866;50.748;12.630;2023-06-10T08:06:30;23.40;99.90
26107;DHT22;13866;50.748;12.630;2023-06-10T08:08:55;23.40;99.90
26107;DHT22;13866;50.748;12.630;2023-06-10T08:11:21;23.40;99.90
26107;DHT22;13866;50.748;12.630;2023-06-10T08:13:46;23.70;99.90
26107;DHT22;13866;50.748;12.630;2023-06-10T08:16:12;23.80;99.90
26107;DHT22;13866;50.748;12.630;2023-06-10T08:18:37;24.10;99.90
26107;DHT22;13866;50.748;12.630;2023-06-10T08:21:03;24.50;99.90
26107;DHT22;13866;50.748;12.630;2023-06-10T08:23:28;24.20;99.90
26107;DHT22;13866;50.748;12.630;2023-06-10T08:25:54;24.10;99.90
26107;DHT22;13866;50.748;12.630;2023-06-10T08:28:19;24.50;99.90
26107;DHT22;13866;50.748;12.630;2023-06-10T08:30:45;24.00;99.90
26107;DHT22;13866;50.748;12.630;2023-06-10T08:33:10;24.10;99.90
26107;DHT22;13866;50.748;12.630;2023-06-10T08:35:36;24.10;99.90
26107;DHT22;13866;50.748;12.630;2023-06-10T08:38:01;23.90;99.90
26107;DHT22;13866;50.748;12.630;2023-06-10T08:40:27;23.80;99.90
26107;DHT22;13866;50.748;12.630;2023-06-10T08:43:10;23.70;99.90
26107;DHT22;13866;50.748;12.630;2023-06-10T08:45:37;23.70;99.90
26107;DHT22;13866;50.748;12.630;2023-06-10T08:48:03;24.10;99.90
26107;DHT22;13866;50.748;12.630;2023-06-10T08:50:36;24.00;99.90
26107;DHT22;13866;50.748;12.630;2023-06-10T08:53:05;24.20;99.90
26107;DHT22;13866;50.748;12.630;2023-06-10T08:55:35;24.70;99.90
26107;DHT22;13866;50.748;12.630;2023-06-10T08:58:01;24.80;99.90
26107;DHT22;13866;50.748;12.630;2023-06-10T09:00:28;24.40;99.90
26107;DHT22;13866;50.748;12.630;2023-06-10T09:02:55;24.60;99.90
26107;DHT22;13866;50.748;12.630;2023-06-10T09:05:21;24.90;99.90
26107;DHT22;13866;50.748;12.630;2023-06-10T09:07:48;24.30;99.90
26107;DHT22;13866;50.748;12.630;2023-06-10T09:10:14;24.40;99.90
26107;DHT22;13866;50.748;12.630;2023-06-10T09:12:40;24.90;99.90
26107;DHT22;13866;50.748;12.630;2023-06-10T09:15:06;25.20;99.90
26107;DHT22;13866;50.748;12.630;2023-06-10T09:17:32;25.50;99.90
26107;DHT22;13866;50.748;12.630;2023-06-10T09:19:59;25.60;99.90
26107;DHT22;13866;50.748;12.630;2023-06-10T09:22:25;25.60;99.90
26107;DHT22;13866;50.748;12.630;2023-06-10T09:25:01;25.70;99.90
26107;DHT22;13866;50.748;12.630;2023-06-10T09:27:29;25.90;99.90
26107;DHT22;13866;50.748;12.630;2023-06-10T09:29:55;25.90;99.90
26107;DHT22;13866;50.748;12.630;2023-06-10T09:32:22;26.10;99.90
26107;DHT22;13866;50.748;12.630;2023-06-10T09:34:49;25.80;99.90
26107;DHT22;13866;50.748;12.630;2023-06-10T09:37:25;25.70;99.90
26107;DHT22;13866;50.748;12.630;2023-06-10T09:40:07;25.70;99.90
26107;DHT22;13866;50.748;12.630;2023-06-10T09:42:34;25.90;99.90
26107;DHT22;13866;50.748;12.630;2023-06-10T09:45:01;25.70;99.90
26107;DHT22;13866;50.748;12.630;2023-06-10T09:47:26;25.60;99.90
26107;DHT22;13866;50.748;12.630;2023-06-10T09:49:52;25.70;99.90
26107;DHT22;13866;50.748;12.630;2023-06-10T09:52:25;25.60;99.90
26107;DHT22;13866;50.748;12.630;2023-06-10T09:54:52;25.60;99.90
26107;DHT22;13866;50.748;12.630;2023-06-10T09:57:19;25.70;99.90
26107;DHT22;13866;50.748;12.630;2023-06-10T09:59:45;24.80;99.90
26107;DHT22;13866;50.748;12.630;2023-06-10T10:02:14;24.50;99.90
26107;DHT22;13866;50.748;12.630;2023-06-10T10:04:40;24.70;99.90
26107;DHT22;13866;50.748;12.630;2023-06-10T10:07:05;24.80;99.90
26107;DHT22;13866;50.748;12.630;2023-06-10T10:09:32;24.80;99.90
26107;DHT22;13866;50.748;12.630;2023-06-10T10:11:59;25.40;99.90
26107;DHT22;13866;50.748;12.630;2023-06-10T10:14:28;25.30;99.90
26107;DHT22;13866;50.748;12.630;2023-06-10T10:16:57;25.60;99.90
26107;DHT22;13866;50.748;12.630;2023-06-10T10:19:28;25.50;99.90
26107;DHT22;13866;50.748;12.630;2023-06-10T10:22:04;24.60;99.90
26107;DHT22;13866;50.748;12.630;2023-06-10T10:24:36;24.90;99.90
26107;DHT22;13866;50.748;12.630;2023-06-10T10:27:11;25.70;99.90
26107;DHT22;13866;50.748;12.630;2023-06-10T10:29:39;25.80;99.90
26107;DHT22;13866;50.748;12.630;2023-06-10T10:32:06;25.80;99.90
26107;DHT22;13866;50.748;12.630;2023-06-10T10:34:43;25.70;99.90
26107;DHT22;13866;50.748;12.630;2023-06-10T10:37:13;25.50;99.90
26107;DHT22;13866;50.748;12.630;2023-06-10T10:39:39;25.30;99.90
26107;DHT22;13866;50.748;12.630;2023-06-10T10:42:05;25.40;99.90
26107;DHT22;13866;50.748;12.630;2023-06-10T10:44:35;25.10;99.90
26107;DHT22;13866;50.748;12.630;2023-06-10T10:47:03;25.10;99.70
26107;DHT22;13866;50.748;12.630;2023-06-10T10:49:30;25.40;99.90
26107;DHT22;13866;50.748;12.630;2023-06-10T10:52:00;25.60;99.60
26107;DHT22;13866;50.748;12.630;2023-06-10T10:54:33;25.70;98.70
26107;DHT22;13866;50.748;12.630;2023-06-10T10:57:18;26.00;98.50
26107;DHT22;13866;50.748;12.630;2023-06-10T10:59:56;25.10;99.90
26107;DHT22;13866;50.748;12.630;2023-06-10T11:02:38;24.90;99.90
26107;DHT22;13866;50.748;12.630;2023-06-10T11:05:06;24.60;99.90
26107;DHT22;13866;50.748;12.630;2023-06-10T11:07:33;24.70;99.90
26107;DHT22;13866;50.748;12.630;2023-06-10T11:10:02;25.40;99.90
26107;DHT22;13866;50.748;12.630;2023-06-10T11:15:24;26.10;99.90
26107;DHT22;13866;50.748;12.630;2023-06-10T11:18:24;26.30;99.90
26107;DHT22;13866;50.748;12.630;2023-06-10T11:20:57;26.30;99.90
26107;DHT22;13866;50.748;12.630;2023-06-10T11:23:30;25.60;99.90
26107;DHT22;13866;50.748;12.630;2023-06-10T11:26:43;25.20;99.90
26107;DHT22;13866;50.748;12.630;2023-06-10T11:29:09;25.70;99.90
26107;DHT22;13866;50.748;12.630;2023-06-10T11:31:40;25.20;99.90
26107;DHT22;13866;50.748;12.630;2023-06-10T11:34:06;25.50;99.90
26107;DHT22;13866;50.748;12.630;2023-06-10T11:36:33;25.20;99.90
26107;DHT22;13866;50.748;12.630;2023-06-10T11:39:04;25.20;99.90
26107;DHT22;13866;50.748;12.630;2023-06-10T11:41:31;25.60;99.90
26107;DHT22;13866;50.748;12.630;2023-06-10T11:44:02;26.10;99.90
26107;DHT22;13866;50.748;12.630;2023-06-10T11:46:28;26.20;99.90
26107;DHT22;13866;50.748;12.630;2023-06-10T11:48:55;26.10;99.90
26107;DHT22;13866;50.748;12.630;2023-06-10T11:51:21;25.20;99.90
26107;DHT22;13866;50.748;12.630;2023-06-10T11:53:50;25.40;99.90
26107;DHT22;13866;50.748;12.630;2023-06-10T11:56:26;25.30;99.90
26107;DHT22;13866;50.748;12.630;2023-06-10T11:59:00;25.70;99.90
26107;DHT22;13866;50.748;12.630;2023-06-10T12:01:42;25.80;99.90
26107;DHT22;13866;50.748;12.630;2023-06-10T12:04:10;25.90;99.80
26107;DHT22;13866;50.748;12.630;2023-06-10T12:06:53;25.90;97.40
26107;DHT22;13866;50.748;12.630;2023-06-10T12:11:55;25.70;98.70
26107;DHT22;13866;50.748;12.630;2023-06-10T12:14:53;25.20;98.70
26107;DHT22;13866;50.748;12.630;2023-06-10T12:17:35;25.40;98.70
26107;DHT22;13866;50.748;12.630;2023-06-10T12:20:04;25.00;98.50
26107;DHT22;13866;50.748;12.630;2023-06-10T12:22:42;24.90;99.70
26107;DHT22;13866;50.748;12.630;2023-06-10T12:25:09;24.80;99.90
26107;DHT22;13866;50.748;12.630;2023-06-10T12:27:36;24.80;99.90
26107;DHT22;13866;50.748;12.630;2023-06-10T12:30:04;25.10;99.90
26107;DHT22;13866;50.748;12.630;2023-06-10T12:32:44;25.70;99.90
26107;DHT22;13866;50.748;12.630;2023-06-10T12:35:12;25.90;99.90
26107;DHT22;13866;50.748;12.630;2023-06-10T12:37:41;25.70;99.90
26107;DHT22;13866;50.748;12.630;2023-06-10T12:40:07;26.30;99.90
26107;DHT22;13866;50.748;12.630;2023-06-10T12:42:35;25.60;99.90
26107;DHT22;13866;50.748;12.630;2023-06-10T12:45:01;26.10;99.90
26107;DHT22;13866;50.748;12.630;2023-06-10T12:47:31;25.80;99.60
26107;DHT22;13866;50.748;12.630;2023-06-10T12:49:58;26.00;99.90
26107;DHT22;13866;50.748;12.630;2023-06-10T12:52:24;26.20;99.90
26107;DHT22;13866;50.748;12.630;2023-06-10T12:54:50;26.50;99.10
26107;DHT22;13866;50.748;12.630;2023-06-10T12:57:15;26.70;98.40
26107;DHT22;13866;50.748;12.630;2023-06-10T12:59:42;26.40;98.00
26107;DHT22;13866;50.748;12.630;2023-06-10T13:02:15;26.20;97.40
26107;DHT22;13866;50.748;12.630;2023-06-10T13:04:40;26.10;96.70
26107;DHT22;13866;50.748;12.630;2023-06-10T13:07:06;26.00;97.60
26107;DHT22;13866;50.748;12.630;2023-06-10T13:09:31;26.30;98.00
26107;DHT22;13866;50.748;12.630;2023-06-10T13:11:57;27.10;98.00
26107;DHT22;13866;50.748;12.630;2023-06-10T13:14:22;27.00;96.60
26107;DHT22;13866;50.748;12.630;2023-06-10T13:16:48;26.90;96.50
26107;DHT22;13866;50.748;12.630;2023-06-10T13:19:13;26.90;96.50
26107;DHT22;13866;50.748;12.630;2023-06-10T13:21:39;26.50;96.50
26107;DHT22;13866;50.748;12.630;2023-06-10T13:24:04;26.60;97.60
26107;DHT22;13866;50.748;12.630;2023-06-10T13:26:30;26.40;94.30
26107;DHT22;13866;50.748;12.630;2023-06-10T13:28:55;26.30;94.10
26107;DHT22;13866;50.748;12.630;2023-06-10T13:31:21;26.40;93.70
26107;DHT22;13866;50.748;12.630;2023-06-10T13:33:46;26.10;93.00
26107;DHT22;13866;50.748;12.630;2023-06-10T13:36:12;26.10;94.70
26107;DHT22;13866;50.748;12.630;2023-06-10T13:38:38;26.20;94.80
26107;DHT22;13866;50.748;12.630;2023-06-10T13:41:03;25.80;94.70
26107;DHT22;13866;50.748;12.630;2023-06-10T13:43:29;25.90;95.30
26107;DHT22;13866;50.748;12.630;2023-06-10T13:45:54;26.00;94.70
26107;DHT22;13866;50.748;12.630;2023-06-10T13:48:20;25.90;94.60
26107;DHT22;13866;50.748;12.630;2023-06-10T13:50:45;25.80;94.10
26107;DHT22;13866;50.748;12.630;2023-06-10T13:53:12;25.50;95.00
26107;DHT22;13866;50.748;12.630;2023-06-10T13:55:37;25.70;95.60
26107;DHT22;13866;50.748;12.630;2023-06-10T13:58:03;25.50;95.20
26107;DHT22;13866;50.748;12.630;2023-06-10T14:00:28;25.70;96.10
26107;DHT22;13866;50.748;12.630;2023-06-10T14:02:54;25.60;94.60
26107;DHT22;13866;50.748;12.630;2023-06-10T14:05:19;25.90;95.20
26107;DHT22;13866;50.748;12.630;2023-06-10T14:07:45;26.10;93.60
26107;DHT22;13866;50.748;12.630;2023-06-10T14:10:10;26.00;96.60
26107;DHT22;13866;50.748;12.630;2023-06-10T14:12:36;26.20;94.60
26107;DHT22;13866;50.748;12.630;2023-06-10T14:15:01;25.90;96.30
26107;DHT22;13866;50.748;12.630;2023-06-10T14:17:28;25.70;94.60
26107;DHT22;13866;50.748;12.630;2023-06-10T14:19:53;25.90;95.80
26107;DHT22;13866;50.748;12.630;2023-06-10T14:22:19;25.90;91.80
26107;DHT22;13866;50.748;12.630;2023-06-10T14:24:44;26.10;90.90
26107;DHT22;13866;50.748;12.630;2023-06-10T14:27:10;26.00;92.50
26107;DHT22;13866;50.748;12.630;2023-06-10T14:29:35;25.90;90.90
26107;DHT22;13866;50.748;12.630;2023-06-10T14:32:01;25.60;91.90
26107;DHT22;13866;50.748;12.630;2023-06-10T14:34:26;25.80;92.20
26107;DHT22;13866;50.748;12.630;2023-06-10T14:36:55;26.00;91.40
26107;DHT22;13866;50.748;12.630;2023-06-10T14:39:20;26.20;91.80
26107;DHT22;13866;50.748;12.630;2023-06-10T14:41:46;25.90;91.90
26107;DHT22;13866;50.748;12.630;2023-06-10T14:44:11;25.90;91.70
26107;DHT22;13866;50.748;12.630;2023-06-10T14:46:36;26.00;92.50
26107;DHT22;13866;50.748;12.630;2023-06-10T14:49:02;25.70;91.80
26107;DHT22;13866;50.748;12.630;2023-06-10T14:51:28;25.80;91.60
26107;DHT22;13866;50.748;12.630;2023-06-10T14:53:53;26.00;92.00
26107;DHT22;13866;50.748;12.630;2023-06-10T14:56:19;26.10;91.70
26107;DHT22;13866;50.748;12.630;2023-06-10T14:58:44;26.30;89.20
26107;DHT22;13866;50.748;12.630;2023-06-10T15:01:10;26.40;89.80
26107;DHT22;13866;50.748;12.630;2023-06-10T15:03:35;26.50;89.50
26107;DHT22;13866;50.748;12.630;2023-06-10T15:06:01;26.50;88.80
26107;DHT22;13866;50.748;12.630;2023-06-10T15:08:26;26.30;86.80
26107;DHT22;13866;50.748;12.630;2023-06-10T15:10:53;26.10;85.60
26107;DHT22;13866;50.748;12.630;2023-06-10T15:13:19;26.20;86.50
26107;DHT22;13866;50.748;12.630;2023-06-10T15:15:45;26.10;90.00
26107;DHT22;13866;50.748;12.630;2023-06-10T15:18:13;26.20;90.00
26107;DHT22;13866;50.748;12.630;2023-06-10T15:20:40;26.30;90.60
26107;DHT22;13866;50.748;12.630;2023-06-10T15:23:09;26.40;90.50
26107;DHT22;13866;50.748;12.630;2023-06-10T15:25:51;26.70;90.70
26107;DHT22;13866;50.748;12.630;2023-06-10T15:28:20;26.60;90.70
26107;DHT22;13866;50.748;12.630;2023-06-10T15:30:47;26.60;90.50